Time;durP1;ratioP1;P1;durP2;ratioP2;P2;SDS_P1;SDS_P2;PMS_P1;PMS_P2;Temp;Humidity;BMP_temperature;BMP_pressure;BME280_temperature;BME280_humidity;BME280_pressure;Samples;Min_cycle;Max_cycle;Signal;HPM_P1;HPM_P2
2023/08/20 00:02:43;;;;;;;10.83;8.77;;;;;;;26.98;58.76;99010.53;6993321;28;20355;-81
2023/08/20 00:06:06;;;;;;;9.47;8.57;;;;;;;27.14;58.66;99038.72;7004188;28;20328;-82
2023/08/20 00:09:27;;;;;;;10.53;8.03;;;;;;;27.42;58.28;99034.88;7016263;28;20207;-82
2023/08/20 00:12:50;;;;;;;9.27;8.33;;;;;;;27.04;59.49;99027.84;7010604;28;20309;-82
2023/08/20 00:16:12;;;;;;;9.93;9.07;;;;;;;26.79;60.58;99044.94;6999541;28;20233;-82
2023/08/20 00:19:34;;;;;;;10.40;9.10;;;;;;;26.96;60.03;99040.44;6999811;28;20331;-82
2023/08/20 00:22:57;;;;;;;9.77;8.80;;;;;;;26.84;60.00;99042.06;7000624;28;20648;-82
2023/08/20 00:26:19;;;;;;;11.20;9.00;;;;;;;26.67;60.73;99047.38;6999318;28;20202;-82
2023/08/20 00:29:41;;;;;;;10.57;9.67;;;;;;;26.87;60.08;99061.66;6998533;28;20305;-82
2023/08/20 00:33:03;;;;;;;10.30;9.20;;;;;;;26.64;60.49;99056.25;6999677;28;20294;-82
2023/08/20 00:36:25;;;;;;;10.17;8.90;;;;;;;27.09;59.98;99050.72;6999102;28;20701;-82
2023/08/20 00:39:46;;;;;;;11.37;8.30;;;;;;;27.31;58.43;99056.41;6999888;28;20227;-82
2023/08/20 00:43:08;;;;;;;12.00;9.00;;;;;;;27.25;58.51;99056.81;6998850;28;20218;-82
2023/08/20 00:46:31;;;;;;;11.43;10.13;;;;;;;26.82;59.67;99056.22;6999084;28;20534;-82
2023/08/20 00:49:53;;;;;;;11.73;9.10;;;;;;;26.78;60.36;99048.81;7000155;28;20356;-82
2023/08/20 00:53:15;;;;;;;9.60;8.67;;;;;;;26.89;60.28;99066.91;6999925;28;20648;-82
2023/08/20 00:56:37;;;;;;;11.17;9.17;;;;;;;27.10;59.62;99063.44;6999068;28;20271;-82
2023/08/20 00:59:59;;;;;;;14.47;9.70;;;;;;;26.82;59.70;99063.69;6999590;28;20209;-82
2023/08/20 01:03:22;;;;;;;11.90;9.97;;;;;;;26.82;60.21;99063.69;6999487;28;20222;-82
2023/08/20 01:06:50;;;;;;;10.73;9.27;;;;;;;27.08;58.93;99071.22;6999325;28;20293;-82
2023/08/20 01:10:18;;;;;;;13.23;10.63;;;;;;;26.23;60.46;99033.13;6999684;28;20203;-82
2023/08/20 01:13:40;;;;;;;10.70;9.70;;;;;;;26.68;60.34;99054.53;6988452;28;20225;-82
2023/08/20 01:17:02;;;;;;;10.63;9.57;;;;;;;26.65;60.44;99067.03;6970114;28;20231;-82
2023/08/20 01:20:29;;;;;;;10.63;9.60;;;;;;;26.62;60.65;99062.13;6992159;28;20243;-82
2023/08/20 01:24:03;;;;;;;11.53;9.80;;;;;;;26.67;59.97;99069.50;6998481;28;20255;-82
2023/08/20 01:27:42;;;;;;;10.77;9.77;;;;;;;26.60;60.86;99075.41;6970467;28;20193;-82
2023/08/20 01:31:05;;;;;;;13.50;10.23;;;;;;;26.27;60.53;99051.59;6971992;28;20192;-82
2023/08/20 01:34:27;;;;;;;11.63;9.47;;;;;;;26.38;60.13;99055.84;6972190;28;20336;-82
2023/08/20 01:37:48;;;;;;;13.60;9.27;;;;;;;26.49;60.74;99073.88;6987852;28;20220;-82
2023/08/20 01:41:10;;;;;;;11.20;8.93;;;;;;;26.64;60.10;99083.91;6994944;28;20258;-82
2023/08/20 01:44:32;;;;;;;10.17;8.77;;;;;;;26.69;59.63;99078.31;6989620;28;20223;-82
2023/08/20 01:47:55;;;;;;;10.53;9.53;;;;;;;26.18;60.84;99083.00;6987891;28;20231;-82
2023/08/20 01:51:16;;;;;;;12.27;9.07;;;;;;;26.54;60.12;99084.09;6972760;28;20274;-82
2023/08/20 01:54:38;;;;;;;11.00;9.83;;;;;;;26.31;61.03;99077.50;6976102;28;20373;-82
2023/08/20 01:57:59;;;;;;;13.67;10.40;;;;;;;26.17;61.13;99076.63;7000039;28;20302;-82
2023/08/20 02:01:21;;;;;;;11.70;10.53;;;;;;;25.98;62.04;99067.53;7000796;28;20213;-82
2023/08/20 02:04:44;;;;;;;12.47;10.43;;;;;;;26.05;61.73;99045.03;7000766;28;20307;-82
2023/08/20 02:08:05;;;;;;;10.33;9.27;;;;;;;26.24;61.35;99079.84;6999925;28;20286;-82
2023/08/20 02:11:27;;;;;;;11.67;9.60;;;;;;;26.19;61.22;99071.59;7000581;28;20291;-82
2023/08/20 02:14:49;;;;;;;10.67;9.57;;;;;;;26.30;61.36;99078.63;6995645;28;20244;-82
2023/08/20 02:18:10;;;;;;;12.13;10.47;;;;;;;26.39;60.89;99070.47;7000198;28;20228;-82
2023/08/20 02:21:33;;;;;;;11.27;10.17;;;;;;;26.03;61.41;99075.75;6993430;28;20274;-81
2023/08/20 02:24:55;;;;;;;10.63;9.53;;;;;;;25.82;62.46;99084.56;7001639;28;20206;-82
2023/08/20 02:28:16;;;;;;;11.70;10.60;;;;;;;25.82;61.87;99045.88;7003466;28;20201;-82
2023/08/20 02:31:38;;;;;;;11.33;10.30;;;;;;;25.82;62.07;99062.47;6996659;28;20343;-82
2023/08/20 02:35:00;;;;;;;12.03;10.80;;;;;;;26.31;61.32;99090.53;6996399;28;20384;-82
2023/08/20 02:38:22;;;;;;;11.27;10.17;;;;;;;26.02;60.98;99048.41;6995896;28;20225;-82
2023/08/20 02:41:44;;;;;;;11.80;10.43;;;;;;;26.17;61.20;99097.91;6998207;28;20213;-81
2023/08/20 02:45:07;;;;;;;9.50;8.53;;;;;;;26.53;60.23;99094.31;6997529;28;20680;-82
2023/08/20 02:48:28;;;;;;;11.87;9.10;;;;;;;26.37;59.66;99084.59;6996861;28;20610;-82
2023/08/20 02:51:50;;;;;;;10.37;8.93;;;;;;;26.29;60.17;99084.44;6996065;28;20590;-82
2023/08/20 02:55:13;;;;;;;11.20;8.83;;;;;;;25.99;60.04;99057.28;6995424;28;20281;-82
2023/08/20 02:58:34;;;;;;;10.83;9.70;;;;;;;25.90;61.44;99089.47;6995131;28;20282;-82
2023/08/20 03:01:56;;;;;;;11.57;10.40;;;;;;;26.01;60.82;99066.91;6996410;28;20319;-82
2023/08/20 03:05:17;;;;;;;11.30;10.33;;;;;;;26.30;60.10;99075.06;6997834;28;20305;-82
2023/08/20 03:08:39;;;;;;;10.33;9.23;;;;;;;26.24;59.98;99079.84;7001523;28;20298;-82
2023/08/20 03:12:02;;;;;;;11.50;9.47;;;;;;;26.26;59.93;99058.22;7003186;28;20858;-82
2023/08/20 03:15:23;;;;;;;11.07;9.90;;;;;;;26.12;59.60;99067.59;7003510;28;20738;-82
2023/08/20 03:18:45;;;;;;;10.57;9.60;;;;;;;26.14;59.87;99057.88;7003391;28;20371;-82
2023/08/20 03:22:06;;;;;;;11.40;9.27;;;;;;;26.04;60.13;99052.50;7003934;28;20367;-82
2023/08/20 03:25:28;;;;;;;12.00;10.77;;;;;;;26.00;61.18;99053.38;7003691;28;20359;-82
2023/08/20 03:28:51;;;;;;;11.63;10.53;;;;;;;26.00;61.11;99048.69;7003484;28;20292;-81
2023/08/20 03:32:12;;;;;;;12.07;10.77;;;;;;;25.57;62.69;99066.41;7003194;28;20245;-82
2023/08/20 03:35:34;;;;;;;13.50;12.20;;;;;;;25.29;64.49;99070.03;7003215;28;20822;-82
2023/08/20 03:38:55;;;;;;;12.03;10.87;;;;;;;25.67;63.84;99055.19;7003631;28;20319;-82
2023/08/20 03:42:17;;;;;;;13.37;11.87;;;;;;;25.70;62.97;99060.13;7003773;28;20835;-82
2023/08/20 03:45:39;;;;;;;13.30;12.00;;;;;;;25.60;63.69;99071.31;7003701;28;20293;-82
2023/08/20 03:49:01;;;;;;;13.10;11.70;;;;;;;25.56;63.16;99069.44;7004082;28;20287;-82
2023/08/20 03:52:23;;;;;;;12.90;11.60;;;;;;;25.39;63.47;99086.50;7003406;28;20686;-82
2023/08/20 03:55:48;;;;;;;13.87;11.87;;;;;;;25.57;63.25;99082.97;7004275;28;20646;-82
2023/08/20 03:59:11;;;;;;;13.37;11.33;;;;;;;25.48;63.53;99087.47;7004188;28;20548;-81
2023/08/20 04:02:35;;;;;;;14.07;10.77;;;;;;;25.75;63.09;99084.09;7010789;28;20335;-82
2023/08/20 04:05:56;;;;;;;12.07;10.97;;;;;;;25.98;61.43;99072.22;7016117;28;20205;-82
2023/08/20 04:09:18;;;;;;;11.97;10.67;;;;;;;25.57;62.09;99062.78;7001508;28;20724;-82
2023/08/20 04:12:39;;;;;;;13.30;11.77;;;;;;;25.80;62.00;99073.00;7001232;28;20312;-82
2023/08/20 04:16:01;;;;;;;13.93;11.27;;;;;;;25.60;62.77;99065.00;6995788;28;20683;-82
2023/08/20 04:19:24;;;;;;;13.70;12.33;;;;;;;25.71;62.40;99075.59;7000842;28;20304;-81
2023/08/20 04:22:45;;;;;;;13.33;12.03;;;;;;;25.77;62.46;99074.41;6996785;28;20305;-82
2023/08/20 04:26:07;;;;;;;12.53;11.23;;;;;;;25.71;62.30;99083.88;6999203;28;20207;-82
2023/08/20 04:29:28;;;;;;;13.23;11.97;;;;;;;25.62;62.56;99084.84;6999734;28;20376;-82
2023/08/20 04:32:49;;;;;;;13.40;12.00;;;;;;;25.12;63.86;99053.09;7001849;28;20634;-82
2023/08/20 04:36:12;;;;;;;13.77;11.40;;;;;;;25.52;63.36;99083.03;7000026;28;20265;-84
2023/08/20 04:39:34;;;;;;;11.97;10.67;;;;;;;25.96;62.02;99091.84;7000951;28;20317;-83
2023/08/20 04:42:55;;;;;;;12.43;11.00;;;;;;;25.95;61.84;99084.69;7000233;28;20856;-82
2023/08/20 04:46:18;;;;;;;12.30;11.20;;;;;;;25.96;61.19;99077.22;6999464;28;20293;-82
2023/08/20 04:49:39;;;;;;;11.00;9.93;;;;;;;25.88;61.98;99092.50;6992383;28;20254;-81
2023/08/20 04:53:02;;;;;;;15.23;10.67;;;;;;;25.50;62.16;99073.38;6971439;28;20710;-84
2023/08/20 04:56:24;;;;;;;12.77;11.50;;;;;;;25.35;62.58;99095.63;6971415;28;20285;-87
2023/08/20 04:59:46;;;;;;;12.57;11.33;;;;;;;25.47;62.94;99088.59;6970880;28;20265;-81
2023/08/20 05:03:07;;;;;;;12.33;11.13;;;;;;;25.31;62.88;99105.66;6972678;28;20225;-82
2023/08/20 05:06:29;;;;;;;13.10;11.90;;;;;;;25.13;64.29;99106.38;6972456;28;20305;-81
2023/08/20 05:09:51;;;;;;;14.53;12.10;;;;;;;25.08;64.46;99098.94;6973047;28;20412;-82
2023/08/20 05:13:13;;;;;;;12.97;11.67;;;;;;;25.57;63.32;99110.59;6973024;28;20632;-82
2023/08/20 05:16:34;;;;;;;12.27;10.97;;;;;;;25.42;62.29;99029.88;6971856;28;20247;-82
2023/08/20 05:19:56;;;;;;;12.13;11.00;;;;;;;26.05;61.74;99111.34;6972508;28;20335;-82
2023/08/20 05:23:17;;;;;;;12.70;11.43;;;;;;;26.13;61.67;99121.75;6972655;28;20781;-82
2023/08/20 05:26:40;;;;;;;11.60;10.40;;;;;;;25.59;62.58;99115.81;6972667;28;20301;-83
2023/08/20 05:30:03;;;;;;;12.17;10.87;;;;;;;25.77;62.83;99120.56;6987978;28;20209;-82
2023/08/20 05:33:24;;;;;;;11.60;10.47;;;;;;;26.22;61.90;99131.84;6989150;28;20233;-83
2023/08/20 05:36:46;;;;;;;13.73;10.70;;;;;;;26.43;60.03;99129.59;6971552;28;20277;-83
2023/08/20 05:40:09;;;;;;;11.70;10.23;;;;;;;26.90;59.54;99121.91;6971356;28;20202;-82
2023/08/20 05:43:32;;;;;;;10.77;9.67;;;;;;;27.17;57.78;99105.41;6974305;28;20592;-87
2023/08/20 05:46:53;;;;;;;11.07;9.50;;;;;;;27.03;58.50;99092.66;6976366;28;20263;-87
2023/08/20 05:50:15;;;;;;;10.60;9.50;;;;;;;27.30;58.38;99096.31;6971293;28;20704;-81
2023/08/20 05:53:36;;;;;;;11.43;10.20;;;;;;;27.62;57.91;99104.53;6971367;28;20717;-82
2023/08/20 05:56:58;;;;;;;12.13;9.87;;;;;;;27.58;58.62;99116.50;6970115;28;20356;-82
2023/08/20 06:00:21;;;;;;;10.50;9.40;;;;;;;27.14;58.70;99108.75;6969384;28;20348;-81
2023/08/20 06:03:43;;;;;;;9.60;8.43;;;;;;;28.19;56.80;99103.84;6970893;28;20224;-81
2023/08/20 06:07:04;;;;;;;9.53;8.70;;;;;;;28.32;54.90;99080.00;6969919;28;20263;-82
2023/08/20 06:10:26;;;;;;;9.87;8.87;;;;;;;28.40;55.78;99135.56;6970826;28;20206;-82
2023/08/20 06:13:47;;;;;;;9.60;8.70;;;;;;;27.98;56.58;99135.94;6970825;28;20686;-82
2023/08/20 06:17:10;;;;;;;10.67;9.50;;;;;;;27.30;57.96;99140.59;6969531;28;20377;-83
2023/08/20 06:20:32;;;;;;;10.60;9.03;;;;;;;28.45;54.55;99127.13;6970904;28;20329;-82
2023/08/20 06:23:53;;;;;;;10.70;8.73;;;;;;;28.97;53.73;99122.81;6970238;28;20304;-82
2023/08/20 06:27:15;;;;;;;9.57;8.60;;;;;;;28.82;55.64;99117.63;6969644;28;20902;-82
2023/08/20 06:30:36;;;;;;;13.57;8.93;;;;;;;29.82;51.95;99132.44;6970961;28;20295;-84
2023/08/20 06:33:59;;;;;;;9.50;8.67;;;;;;;29.44;52.35;99095.16;6973059;28;20265;-83
2023/08/20 06:37:21;;;;;;;8.87;8.13;;;;;;;29.90;52.46;99128.84;6973237;28;20370;-84
2023/08/20 06:40:42;;;;;;;10.33;9.33;;;;;;;29.10;54.10;99141.34;6969495;28;20303;-84
2023/08/20 06:44:04;;;;;;;10.87;9.60;;;;;;;28.83;55.50;99135.94;6972294;28;20375;-83
2023/08/20 06:47:26;;;;;;;9.67;8.70;;;;;;;29.64;52.88;99046.50;6996056;28;20345;-84
2023/08/20 06:50:49;;;;;;;9.83;8.83;;;;;;;30.46;50.88;99139.13;6976326;28;20302;-84
2023/08/20 06:54:10;;;;;;;9.20;8.30;;;;;;;30.40;51.51;99148.78;6969761;28;20255;-84
2023/08/20 06:57:32;;;;;;;8.90;8.00;;;;;;;30.67;50.95;99149.31;6969237;28;20446;-84
2023/08/20 07:00:53;;;;;;;10.17;9.17;;;;;;;30.05;52.29;99149.81;6968420;28;20565;-84
2023/08/20 07:04:15;;;;;;;10.33;9.40;;;;;;;30.36;51.15;99131.91;6969358;28;20309;-83
2023/08/20 07:07:38;;;;;;;11.27;8.90;;;;;;;30.87;49.80;99134.72;6969017;28;20201;-82
2023/08/20 07:10:59;;;;;;;10.43;9.03;;;;;;;31.56;48.51;99141.00;6969663;28;20268;-84
2023/08/20 07:14:21;;;;;;;10.50;9.40;;;;;;;31.29;49.32;99152.53;6969446;28;20232;-84
2023/08/20 07:17:42;;;;;;;9.13;8.33;;;;;;;32.61;46.18;99140.56;6968746;28;20315;-84
2023/08/20 07:21:04;;;;;;;9.90;8.93;;;;;;;32.75;44.81;99149.50;6969150;28;20683;-85
2023/08/20 07:24:29;;;;;;;10.13;9.13;;;;;;;31.31;48.66;99161.41;6969593;28;20289;-84
2023/08/20 07:27:50;;;;;;;10.73;9.37;;;;;;;31.44;49.13;99163.16;6969760;28;20209;-84
2023/08/20 07:31:12;;;;;;;10.50;9.40;;;;;;;31.47;49.03;99168.91;6972016;28;20294;-83
2023/08/20 07:34:34;;;;;;;10.83;9.73;;;;;;;31.71;48.16;99165.50;6972383;28;20239;-84
2023/08/20 07:37:56;;;;;;;11.90;9.07;;;;;;;32.41;47.00;99171.28;6976627;28;20719;-83
2023/08/20 07:41:20;;;;;;;12.60;9.33;;;;;;;32.63;47.00;99162.56;7001218;28;20239;-84
2023/08/20 07:44:41;;;;;;;16.33;9.80;;;;;;;32.61;46.29;99168.50;7005772;28;20709;-82
2023/08/20 07:48:03;;;;;;;11.13;9.73;;;;;;;32.81;46.02;99158.50;7010419;28;20700;-82
2023/08/20 07:51:24;;;;;;;10.07;9.00;;;;;;;32.13;46.57;99123.50;7003942;28;20300;-81
2023/08/20 07:54:46;;;;;;;10.90;9.90;;;;;;;31.54;48.28;99174.78;7002121;28;20335;-82
2023/08/20 07:58:09;;;;;;;10.33;9.33;;;;;;;32.78;46.37;99167.59;7002061;28;20316;-81
2023/08/20 08:01:32;;;;;;;11.87;9.87;;;;;;;32.53;45.04;99096.78;7001817;28;20677;-83
2023/08/20 08:04:54;;;;;;;11.10;8.87;;;;;;;33.68;44.00;99178.53;7001693;28;20221;-82
2023/08/20 08:08:16;;;;;;;9.77;8.97;;;;;;;33.18;44.79;99182.66;7001588;28;20292;-82
2023/08/20 08:11:37;;;;;;;9.57;8.67;;;;;;;32.98;45.47;99184.34;7002069;28;20291;-81
2023/08/20 08:15:00;;;;;;;9.57;8.87;;;;;;;33.19;45.18;99185.13;7001931;28;20221;-81
2023/08/20 08:18:22;;;;;;;9.47;8.47;;;;;;;33.88;43.79;99176.81;7000963;28;20321;-81
2023/08/20 08:21:44;;;;;;;10.00;8.33;;;;;;;34.23;43.60;99190.03;7001993;28;20282;-81
2023/08/20 08:25:06;;;;;;;12.97;8.50;;;;;;;34.61;42.13;99184.84;7001370;28;20351;-81
2023/08/20 08:28:27;;;;;;;8.90;8.10;;;;;;;35.63;39.66;99190.69;7001410;28;20686;-81
2023/08/20 08:31:50;;;;;;;11.33;7.60;;;;;;;36.12;39.28;99192.81;7001222;28;20297;-81
2023/08/20 08:35:12;;;;;;;10.10;8.70;;;;;;;36.08;38.69;99185.50;7001128;28;20693;-81
2023/08/20 08:38:33;;;;;;;10.60;7.80;;;;;;;35.25;41.07;99190.44;7000729;28;20359;-82
2023/08/20 08:41:58;;;;;;;9.00;8.13;;;;;;;34.85;41.09;99182.03;7001126;28;20225;-82
2023/08/20 08:45:20;;;;;;;10.00;8.40;;;;;;;35.13;40.75;99179.25;7001002;28;20646;-86
2023/08/20 08:48:44;;;;;;;9.77;8.70;;;;;;;35.00;40.60;99172.03;7001044;28;20209;-83
2023/08/20 08:52:06;;;;;;;10.43;7.90;;;;;;;35.69;38.94;99178.84;7001700;28;20996;-81
2023/08/20 08:55:27;;;;;;;9.00;8.17;;;;;;;35.06;41.10;99187.44;7001136;28;20210;-81
2023/08/20 08:58:49;;;;;;;9.47;8.07;;;;;;;35.52;38.15;99109.06;7001183;28;20318;-81
2023/08/20 09:02:13;;;;;;;9.17;7.40;;;;;;;36.31;38.29;99187.31;7000323;28;20260;-82
2023/08/20 09:05:46;;;;;;;9.30;7.97;;;;;;;35.94;39.34;99182.31;7000749;28;20288;-81
2023/08/20 09:09:08;;;;;;;9.50;7.70;;;;;;;35.73;39.67;99165.75;7001638;28;20218;-81
2023/08/20 09:12:35;;;;;;;9.63;7.60;;;;;;;36.29;38.39;99152.31;7001715;28;20299;-81
2023/08/20 09:15:56;;;;;;;8.67;7.87;;;;;;;36.15;38.43;99182.88;7000569;28;20647;-83
2023/08/20 09:19:18;;;;;;;8.77;7.80;;;;;;;35.58;40.09;99182.53;7003977;28;20342;-82
2023/08/20 09:22:49;;;;;;;10.07;8.77;;;;;;;35.38;39.50;99190.00;7004209;28;20298;-83
2023/08/20 09:26:10;;;;;;;12.47;8.70;;;;;;;34.79;41.73;99177.84;7003283;28;20190;-82
2023/08/20 09:29:33;;;;;;;8.40;7.67;;;;;;;35.86;39.30;99150.47;7004916;28;20205;-83
2023/08/20 09:33:04;;;;;;;9.67;7.80;;;;;;;36.12;39.35;99177.97;7004261;28;20307;-83
2023/08/20 09:36:32;;;;;;;8.77;8.00;;;;;;;36.04;39.36;99176.16;7004067;28;20189;-83
2023/08/20 09:39:55;;;;;;;8.97;8.07;;;;;;;36.40;39.07;99201.16;7004807;28;20228;-83
2023/08/20 09:43:17;;;;;;;8.70;7.90;;;;;;;36.35;38.84;99173.34;6997940;28;20367;-84
2023/08/20 09:46:39;;;;;;;9.50;8.43;;;;;;;36.08;39.91;99193.94;7003652;28;20716;-84
2023/08/20 09:50:02;;;;;;;10.30;8.47;;;;;;;36.79;37.99;99186.03;7004624;28;20568;-84
2023/08/20 09:53:28;;;;;;;11.17;8.07;;;;;;;36.81;37.71;99184.50;7003922;28;20697;-81
2023/08/20 09:56:54;;;;;;;9.93;8.43;;;;;;;37.41;36.56;99177.31;7005216;28;20267;-81
2023/08/20 10:00:16;;;;;;;10.17;7.97;;;;;;;36.72;37.85;99171.84;7004345;28;20268;-81
2023/08/20 10:03:38;;;;;;;9.80;6.60;;;;;;;37.16;35.94;99173.19;7009697;28;20245;-82
2023/08/20 10:07:00;;;;;;;7.70;6.80;;;;;;;37.97;34.49;99169.94;7018658;28;20236;-82
2023/08/20 10:10:21;;;;;;;8.50;7.33;;;;;;;36.72;37.88;99172.63;7011577;28;20212;-82
2023/08/20 10:13:45;;;;;;;7.53;6.80;;;;;;;37.41;36.34;99168.88;7003468;28;20313;-82
2023/08/20 10:17:09;;;;;;;8.93;7.40;;;;;;;37.50;35.68;99144.94;7003310;28;20657;-82
2023/08/20 10:20:31;;;;;;;9.83;6.87;;;;;;;38.12;34.01;99150.13;7003151;28;20307;-83
2023/08/20 10:23:54;;;;;;;8.33;7.63;;;;;;;38.38;33.83;99158.56;7003483;28;20642;-83
2023/08/20 10:27:25;;;;;;;8.27;6.13;;;;;;;38.52;33.77;99164.47;7003508;28;20247;-82
2023/08/20 10:31:16;;;;;;;10.23;6.93;;;;;;;38.08;33.70;99163.31;7003358;28;20723;-82
2023/08/20 10:34:39;;;;;;;8.83;6.63;;;;;;;38.80;33.13;99164.03;6958189;28;20255;-81
2023/08/20 10:38:02;;;;;;;6.83;6.10;;;;;;;38.50;33.14;99166.81;7005731;28;20210;-84
2023/08/20 10:41:27;;;;;;;6.73;5.90;;;;;;;38.42;33.06;99147.41;7007716;28;20201;-84
2023/08/20 10:45:03;;;;;;;6.40;5.80;;;;;;;38.59;32.86;99161.72;6999907;28;20790;-84
2023/08/20 10:48:27;;;;;;;8.37;6.30;;;;;;;38.65;32.16;99150.91;6998489;28;20554;-84
2023/08/20 10:51:49;;;;;;;6.83;6.07;;;;;;;38.57;32.17;99155.69;6998977;28;20251;-81
2023/08/20 10:55:10;;;;;;;6.57;5.50;;;;;;;38.00;32.83;99152.31;6999348;28;20233;-82
2023/08/20 10:58:32;;;;;;;7.90;6.27;;;;;;;36.91;34.65;99133.28;6998398;28;20716;-82
2023/08/20 11:01:54;;;;;;;7.10;6.07;;;;;;;37.74;33.89;99155.88;6998654;28;20706;-82
2023/08/20 11:05:21;;;;;;;7.20;5.47;;;;;;;38.60;32.54;99160.53;6999121;28;20199;-82
2023/08/20 11:08:43;;;;;;;6.23;5.63;;;;;;;38.85;30.53;99153.25;6998980;28;20687;-82
2023/08/20 11:12:05;;;;;;;7.60;5.77;;;;;;;38.61;30.80;99145.25;6998730;28;20218;-82
2023/08/20 11:15:27;;;;;;;7.93;5.67;;;;;;;38.98;30.27;99153.81;6999562;28;20686;-84
2023/08/20 11:18:49;;;;;;;5.57;4.97;;;;;;;39.07;28.55;99140.25;6996590;28;20318;-85
2023/08/20 11:22:13;;;;;;;9.07;5.00;;;;;;;38.61;30.73;99150.88;6996809;28;20371;-84
2023/08/20 11:25:35;;;;;;;6.93;4.77;;;;;;;39.71;28.68;99149.06;6996847;28;20205;-83
2023/08/20 11:28:56;;;;;;;9.00;5.88;;;;;;;39.62;29.15;99122.31;6998763;28;20331;-84
2023/08/20 11:32:18;;;;;;;7.88;5.20;;;;;;;39.40;30.17;99143.88;7001756;28;20630;-83
2023/08/20 11:35:39;;;;;;;7.60;5.20;;;;;;;39.85;29.54;99129.41;7000500;28;20315;-83
2023/08/20 11:39:02;;;;;;;7.35;5.28;;;;;;;39.72;28.98;99133.72;7000905;28;20370;-83
2023/08/20 11:42:24;;;;;;;6.47;5.60;;;;;;;40.44;28.09;99119.78;7001312;28;20315;-83
2023/08/20 11:45:47;;;;;;;5.68;5.15;;;;;;;39.81;28.93;99122.13;6980119;28;20371;-82
2023/08/20 11:49:09;;;;;;;10.02;5.78;;;;;;;38.35;30.85;99125.50;6976224;28;20297;-83
2023/08/20 11:52:32;;;;;;;8.27;5.47;;;;;;;39.05;30.81;99123.69;6978414;28;20537;-83
2023/08/20 11:55:55;;;;;;;7.32;6.03;;;;;;;39.32;30.21;99125.22;6976728;28;20340;-82
2023/08/20 11:59:18;;;;;;;12.10;6.00;;;;;;;39.06;31.15;99130.97;6978578;28;20283;-82
2023/08/20 12:02:41;;;;;;;7.40;5.20;;;;;;;38.95;30.69;99129.22;6978475;28;20246;-83
2023/08/20 12:06:18;;;;;;;6.07;5.37;;;;;;;39.64;28.36;99122.72;6977389;28;20659;-81
2023/08/20 12:09:39;;;;;;;5.88;5.28;;;;;;;39.70;28.01;99107.91;6978845;28;20734;-82
2023/08/20 12:13:02;;;;;;;8.50;5.30;;;;;;;39.41;29.44;99120.09;6977756;28;20644;-82
2023/08/20 12:16:25;;;;;;;7.10;5.25;;;;;;;39.62;28.58;99111.81;6977411;28;20229;-82
2023/08/20 12:19:46;;;;;;;5.35;4.85;;;;;;;39.29;29.34;99120.38;6978241;28;20317;-82
2023/08/20 12:23:08;;;;;;;5.30;4.80;;;;;;;39.91;28.97;99113.72;6988044;28;20230;-82
2023/08/20 12:26:29;;;;;;;8.68;5.75;;;;;;;39.28;29.31;99107.47;6975769;28;20292;-81
2023/08/20 12:29:52;;;;;;;5.70;5.20;;;;;;;38.83;30.29;99096.41;6976851;28;20290;-82
2023/08/20 12:33:14;;;;;;;6.88;4.93;;;;;;;39.14;29.90;99089.53;6976513;28;20234;-82
2023/08/20 12:36:36;;;;;;;5.80;5.25;;;;;;;38.64;30.27;99087.28;6976126;28;20344;-82
2023/08/20 12:39:58;;;;;;;8.77;5.10;;;;;;;38.47;29.93;99068.94;6975937;28;20230;-82
2023/08/20 12:43:19;;;;;;;7.53;5.57;;;;;;;39.20;29.68;99085.16;6977584;28;20361;-81
2023/08/20 12:46:42;;;;;;;6.15;5.35;;;;;;;38.82;29.57;99079.84;6975850;28;20247;-82
2023/08/20 12:50:04;;;;;;;5.97;4.97;;;;;;;39.15;29.96;99086.31;6976558;28;20692;-83
2023/08/20 12:53:26;;;;;;;7.57;5.35;;;;;;;39.49;29.07;99078.66;6976634;28;20598;-83
2023/08/20 12:56:47;;;;;;;6.90;5.10;;;;;;;39.87;29.13;99086.66;6976051;28;20249;-82
2023/08/20 13:00:11;;;;;;;9.15;5.53;;;;;;;40.18;27.78;99083.28;6975983;28;20246;-83
2023/08/20 13:03:35;;;;;;;6.45;5.18;;;;;;;39.74;28.25;99049.47;6976721;28;20563;-83
2023/08/20 13:06:57;;;;;;;7.15;5.30;;;;;;;38.91;28.88;99069.91;6976659;28;20344;-83
2023/08/20 13:10:20;;;;;;;6.65;5.35;;;;;;;38.45;29.97;99040.34;6976360;28;20293;-83
2023/08/20 13:13:42;;;;;;;5.97;5.32;;;;;;;38.29;30.28;99073.50;6976703;28;20344;-83
2023/08/20 13:17:04;;;;;;;7.13;5.50;;;;;;;38.96;29.41;99063.94;6976118;28;20234;-83
2023/08/20 13:20:27;;;;;;;5.77;5.17;;;;;;;39.15;29.35;99043.19;6976195;28;20313;-83
2023/08/20 13:23:48;;;;;;;5.70;5.13;;;;;;;39.20;29.43;99066.22;6976540;28;20270;-83
2023/08/20 13:27:10;;;;;;;8.27;5.25;;;;;;;39.89;28.38;99058.81;6975482;28;20233;-83
2023/08/20 13:30:33;;;;;;;6.88;5.07;;;;;;;39.56;27.45;99036.34;6976003;28;20226;-83
2023/08/20 13:33:54;;;;;;;8.82;5.18;;;;;;;39.76;29.03;99051.88;6974874;28;20226;-83
2023/08/20 13:37:17;;;;;;;7.13;5.20;;;;;;;39.45;28.21;99067.31;6974431;28;20246;-83
2023/08/20 13:40:39;;;;;;;5.22;4.55;;;;;;;39.56;28.09;99068.19;6975712;28;20226;-83
2023/08/20 13:44:00;;;;;;;6.85;4.68;;;;;;;39.88;26.84;99060.84;6974694;28;20317;-83
2023/08/20 13:47:22;;;;;;;9.43;4.65;;;;;;;39.61;26.96;99052.94;6999668;28;20256;-83
2023/08/20 13:50:44;;;;;;;6.05;4.63;;;;;;;38.54;28.26;99029.56;7002072;28;20246;-83
2023/08/20 13:54:07;;;;;;;4.78;4.38;;;;;;;39.24;28.07;99049.31;7003200;28;20361;-83
2023/08/20 13:57:29;;;;;;;6.60;4.82;;;;;;;39.83;26.97;99038.63;7003534;28;20627;-83
2023/08/20 14:00:50;;;;;;;7.20;5.00;;;;;;;40.07;26.79;99040.78;7002658;28;20241;-83
2023/08/20 14:04:12;;;;;;;7.57;4.88;;;;;;;39.45;26.97;99033.44;7002466;28;20310;-83
2023/08/20 14:07:34;;;;;;;6.35;4.90;;;;;;;38.96;28.48;99035.72;7001627;28;20303;-83
2023/08/20 14:10:56;;;;;;;8.18;4.63;;;;;;;38.98;27.11;99021.25;7000762;28;20245;-83
2023/08/20 14:14:18;;;;;;;6.53;4.82;;;;;;;39.49;27.37;99022.19;7001284;28;20314;-83
2023/08/20 14:17:39;;;;;;;7.00;4.50;;;;;;;39.60;27.14;99018.22;7000788;28;20295;-83
2023/08/20 14:21:02;;;;;;;4.88;4.35;;;;;;;38.67;28.63;99019.66;7001228;28;20311;-83
2023/08/20 14:24:24;;;;;;;8.23;4.37;;;;;;;37.99;29.65;99030.41;7001261;28;20290;-83
2023/08/20 14:27:47;;;;;;;7.57;4.87;;;;;;;38.18;29.60;99015.38;7000869;28;20217;-83
2023/08/20 14:31:08;;;;;;;7.63;4.70;;;;;;;39.07;27.21;99033.06;7001486;28;20273;-83
2023/08/20 14:34:30;;;;;;;6.80;4.13;;;;;;;39.18;27.55;99026.31;7001806;28;20321;-83
2023/08/20 14:37:53;;;;;;;7.50;5.17;;;;;;;38.38;30.15;99025.31;7001284;28;20217;-83
2023/08/20 14:41:15;;;;;;;7.70;4.93;;;;;;;38.23;29.64;99010.22;7001563;28;20573;-83
2023/08/20 14:44:38;;;;;;;6.07;4.70;;;;;;;38.79;29.64;99021.41;7001317;28;20232;-83
2023/08/20 14:48:00;;;;;;;5.90;4.40;;;;;;;38.42;29.72;98995.22;7000993;28;20571;-83
2023/08/20 14:51:21;;;;;;;5.93;4.60;;;;;;;38.61;28.99;99003.50;7001800;28;20265;-83
2023/08/20 14:54:43;;;;;;;5.40;4.53;;;;;;;38.12;29.57;99012.09;7002026;28;20408;-83
2023/08/20 14:58:05;;;;;;;9.10;5.00;;;;;;;38.44;29.77;99009.72;7000924;28;20684;-83
2023/08/20 15:01:28;;;;;;;10.27;4.70;;;;;;;38.18;29.51;98998.47;7000643;28;20233;-82
2023/08/20 15:04:49;;;;;;;10.30;4.80;;;;;;;38.49;29.11;98998.13;7007587;28;20292;-83
2023/08/20 15:08:11;;;;;;;5.47;4.80;;;;;;;38.77;28.92;98996.41;7007727;28;20193;-83
2023/08/20 15:11:32;;;;;;;5.93;4.27;;;;;;;38.53;28.80;99008.22;7008716;28;20295;-83
2023/08/20 15:14:54;;;;;;;7.87;4.70;;;;;;;38.40;29.03;99011.63;7008512;28;20256;-83
2023/08/20 15:18:17;;;;;;;5.30;4.80;;;;;;;38.41;29.66;99008.47;7007558;28;20674;-83
2023/08/20 15:21:38;;;;;;;6.13;5.20;;;;;;;38.46;30.21;98993.22;7010096;28;20221;-82
2023/08/20 15:25:00;;;;;;;5.70;5.13;;;;;;;37.40;32.28;99009.69;7010745;28;20225;-83
2023/08/20 15:28:23;;;;;;;5.60;4.90;;;;;;;37.99;32.00;99019.16;7005219;28;20302;-82
2023/08/20 15:31:44;;;;;;;5.30;4.80;;;;;;;37.88;32.16;99015.31;7004388;28;20817;-83
2023/08/20 15:35:08;;;;;;;7.33;4.70;;;;;;;37.12;32.57;99007.19;7002701;28;20351;-83
2023/08/20 15:38:30;;;;;;;5.50;5.00;;;;;;;36.36;34.28;98992.41;7001517;28;20207;-83
2023/08/20 15:41:51;;;;;;;7.43;4.83;;;;;;;36.79;34.51;99021.00;7002700;28;20263;-83
2023/08/20 15:45:13;;;;;;;6.40;5.13;;;;;;;37.67;32.57;99019.81;6997944;28;20292;-83